createdAt,value
2019-03-21T04:50:42.068Z,75.08
2019-03-21T04:53:12.918Z,75.70
2019-03-21T04:55:43.557Z,74.65
2019-03-21T04:58:14.087Z,74.61
2019-03-21T05:00:52.831Z,73.14
2019-03-21T05:03:25.904Z,72.09
2019-03-21T05:05:56.535Z,70.67
2019-03-21T05:08:27.017Z,69.96
2019-03-21T05:10:57.589Z,69.04
2019-03-21T05:13:28.121Z,68.26
2019-03-21T05:15:58.752Z,67.79
2019-03-21T05:18:41.374Z,66.94
2019-03-21T05:21:18.551Z,66.64
2019-03-21T05:23:49.208Z,66.46
2019-03-21T05:26:19.724Z,66.19
2019-03-21T05:28:50.354Z,65.94
2019-03-21T05:31:33.637Z,65.39
2019-03-21T05:34:04.315Z,65.10
2019-03-21T05:36:34.848Z,64.73
2019-03-21T05:39:08.554Z,64.42
2019-03-21T05:41:39.062Z,64.23
2019-03-21T05:44:15.965Z,64.33
2019-03-21T05:46:46.593Z,63.84
2019-03-21T05:49:17.235Z,63.13
2019-03-21T05:51:47.864Z,63.16
2019-03-21T05:54:18.435Z,63.31
2019-03-21T05:56:49.024Z,63.00
2019-03-21T05:59:19.558Z,62.79
2019-03-21T06:01:50.084Z,63.22
2019-03-21T06:04:20.574Z,63.16
2019-03-21T06:07:11.323Z,63.49
2019-03-21T06:09:41.817Z,63.31
2019-03-21T06:12:14.019Z,62.98
2019-03-21T06:15:00.020Z,62.60
2019-03-21T06:17:31.570Z,62.70
2019-03-21T06:20:22.320Z,63.00
2019-03-21T06:22:57.553Z,63.22
2019-03-21T06:25:37.364Z,62.73
2019-03-21T06:28:07.941Z,61.92
2019-03-21T06:30:38.551Z,61.53
2019-03-21T06:33:09.098Z,60.60
2019-03-21T06:35:39.596Z,59.78
2019-03-21T06:38:11.144Z,59.62
2019-03-21T06:40:41.773Z,58.72
2019-03-21T06:43:12.304Z,58.12
2019-03-21T06:45:48.010Z,58.10
2019-03-21T06:48:15.118Z,57.86
2019-03-21T06:50:45.725Z,57.65
2019-03-21T06:53:16.301Z,57.49
2019-03-21T06:55:46.797Z,56.38
2019-03-21T06:58:17.337Z,55.34
2019-03-21T07:00:47.942Z,55.10
2019-03-21T07:03:18.508Z,56.86
2019-03-21T07:05:49.000Z,57.98
2019-03-21T07:08:19.569Z,57.71
2019-03-21T07:10:50.098Z,55.63
2019-03-21T07:13:20.589Z,55.12
2019-03-21T07:15:51.092Z,56.21
2019-03-21T07:18:21.692Z,58.43
2019-03-21T07:20:52.419Z,59.07
2019-03-21T07:23:23.058Z,59.86
2019-03-21T07:25:55.232Z,60.10
2019-03-21T07:28:25.757Z,61.28
2019-03-21T07:30:56.386Z,62.34
2019-03-21T07:33:26.873Z,63.31
2019-03-21T07:35:57.458Z,63.89
2019-03-21T07:38:27.979Z,64.49
2019-03-21T07:40:58.508Z,63.78
2019-03-21T07:43:29.043Z,62.76
2019-03-21T07:45:59.573Z,61.31
2019-03-21T07:48:30.153Z,60.77
2019-03-21T07:51:00.741Z,61.51
2019-03-21T07:53:31.321Z,61.56
2019-03-21T07:56:02.002Z,62.30
2019-03-21T07:58:32.597Z,61.17
2019-03-21T08:01:03.113Z,59.77
2019-03-21T08:03:33.734Z,59.22
2019-03-21T08:06:05.352Z,58.74
2019-03-21T08:08:35.956Z,58.82
2019-03-21T08:11:06.516Z,58.07
2019-03-21T08:13:39.710Z,57.10
2019-03-21T08:16:10.316Z,56.44
2019-03-21T08:18:40.825Z,56.43
2019-03-21T08:21:11.374Z,55.67
2019-03-21T08:23:42.041Z,56.02
2019-03-21T08:26:12.642Z,57.49
2019-03-21T08:28:43.129Z,58.49
2019-03-21T08:31:14.476Z,58.05
2019-03-21T08:33:44.988Z,57.31
2019-03-21T08:36:15.566Z,56.96
2019-03-21T08:38:46.147Z,56.99
2019-03-21T08:41:16.629Z,56.04
2019-03-21T08:43:47.292Z,55.59
2019-03-21T08:46:17.840Z,54.74
2019-03-21T08:48:48.582Z,53.69
2019-03-21T08:51:19.150Z,53.09
2019-03-21T08:53:49.795Z,53.98
2019-03-21T08:56:20.346Z,54.47
2019-03-21T08:58:50.900Z,55.55
2019-03-21T09:01:22.560Z,56.00
2019-03-21T09:03:53.202Z,54.35
2019-03-21T09:06:26.796Z,55.03
2019-03-21T09:08:58.767Z,54.53
2019-03-21T09:11:29.392Z,55.11
2019-03-21T09:13:59.901Z,56.16
2019-03-21T09:16:30.476Z,56.85
2019-03-21T09:19:01.094Z,57.41
2019-03-21T09:21:31.625Z,56.81
2019-03-21T09:24:02.265Z,56.33
2019-03-21T09:26:34.013Z,55.27
2019-03-21T09:29:04.655Z,54.14
2019-03-21T09:31:35.182Z,53.25
2019-03-21T09:34:05.678Z,52.89
2019-03-21T09:36:36.173Z,51.92
2019-03-21T09:39:07.182Z,52.88
2019-03-21T09:41:37.935Z,53.17
2019-03-21T09:44:08.455Z,52.70
2019-03-21T09:46:50.094Z,52.66
2019-03-21T09:49:11.359Z,53.29
2019-03-21T09:51:41.935Z,52.80
2019-03-21T09:54:12.508Z,51.63
2019-03-21T09:56:43.081Z,52.08
2019-03-21T09:59:14.759Z,51.34
2019-03-21T10:01:45.755Z,50.29
2019-03-21T10:04:16.296Z,48.80
2019-03-21T10:06:46.872Z,49.20
2019-03-21T10:09:17.600Z,50.45
2019-03-21T10:11:48.110Z,51.19
2019-03-21T10:14:18.620Z,51.96
2019-03-21T10:16:49.239Z,52.63
2019-03-21T10:19:19.771Z,52.99
2019-03-21T10:21:50.286Z,52.64
2019-03-21T10:24:20.942Z,51.89
2019-03-21T10:26:51.432Z,51.20
2019-03-21T10:29:22.006Z,49.73
2019-03-21T10:31:52.472Z,49.67
2019-03-21T10:34:23.262Z,49.44
2019-03-21T10:36:53.796Z,49.08
2019-03-21T10:39:24.365Z,49.34
2019-03-21T10:41:54.934Z,49.29
2019-03-21T10:44:25.456Z,49.46
2019-03-21T10:46:56.014Z,49.88
2019-03-21T10:49:26.608Z,50.35
2019-03-21T10:51:57.183Z,49.72
2019-03-21T10:54:28.190Z,49.78
2019-03-21T10:56:58.680Z,49.78
2019-03-21T10:59:29.488Z,48.86
2019-03-21T11:02:07.298Z,48.59
2019-03-21T11:04:32.275Z,48.44
2019-03-21T11:07:01.909Z,47.93
2019-03-21T11:09:32.516Z,48.19
2019-03-21T11:12:03.177Z,48.11
2019-03-21T11:14:33.808Z,47.45
2019-03-21T11:17:04.375Z,46.70
2019-03-21T11:19:34.929Z,46.05
2019-03-21T11:22:06.684Z,46.52
2019-03-21T11:24:37.381Z,46.68
2019-03-21T11:27:07.948Z,47.23
2019-03-21T11:29:38.569Z,46.94
2019-03-21T11:32:09.009Z,47.83
2019-03-21T11:34:39.687Z,47.53
2019-03-21T11:37:10.231Z,47.77
2019-03-21T11:39:40.753Z,47.99
2019-03-21T11:42:11.251Z,47.05
2019-03-21T11:44:41.765Z,46.25
2019-03-21T11:47:12.242Z,46.00
2019-03-21T11:49:44.390Z,46.01
2019-03-21T11:52:18.487Z,45.64
2019-03-21T11:54:47.126Z,46.22
2019-03-21T11:57:17.748Z,46.99
2019-03-21T11:59:51.979Z,46.33
2019-03-21T12:02:27.227Z,46.74
2019-03-21T12:04:53.747Z,47.17
2019-03-21T12:07:24.278Z,47.02
2019-03-21T12:09:55.109Z,46.47
2019-03-21T12:12:26.581Z,46.58
2019-03-21T12:14:57.100Z,47.30
2019-03-21T12:17:27.589Z,47.06
2019-03-21T12:19:58.092Z,47.87
2019-03-21T12:22:30.269Z,48.60
2019-03-21T12:25:00.788Z,49.04
2019-03-21T12:27:31.346Z,49.07
2019-03-21T12:30:02.026Z,49.37
2019-03-21T12:32:32.672Z,49.90
2019-03-21T12:35:03.556Z,50.51
2019-03-21T12:37:34.061Z,50.20
2019-03-21T12:40:07.796Z,49.30
2019-03-21T12:42:38.359Z,50.36
2019-03-21T12:45:10.111Z,51.67
2019-03-21T12:47:41.672Z,52.08
2019-03-21T12:50:13.432Z,51.88
2019-03-21T12:52:44.173Z,51.52
2019-03-21T12:55:14.703Z,51.74
2019-03-21T12:57:46.239Z,52.26
2019-03-21T13:00:20.165Z,54.17
2019-03-21T13:02:51.579Z,55.35
2019-03-21T13:05:28.039Z,55.65
2019-03-21T13:07:58.632Z,55.01
2019-03-21T13:10:29.252Z,53.99
2019-03-21T13:12:59.882Z,53.64
2019-03-21T13:15:30.536Z,53.95
2019-03-21T13:18:01.121Z,53.38
2019-03-21T13:20:31.685Z,53.10
2019-03-21T13:23:02.323Z,52.02
2019-03-21T13:25:32.946Z,51.68
2019-03-21T13:28:03.506Z,50.38
2019-03-21T13:30:34.221Z,52.07
2019-03-21T13:33:05.122Z,52.80
2019-03-21T13:35:35.692Z,53.48
2019-03-21T13:38:06.271Z,53.40
2019-03-21T13:40:36.873Z,53.59
2019-03-21T13:43:07.383Z,53.53
2019-03-21T13:45:38.122Z,53.35
2019-03-21T13:48:08.753Z,53.55
2019-03-21T13:50:39.245Z,53.68
2019-03-21T13:53:18.501Z,53.45
2019-03-21T13:55:43.103Z,53.68
2019-03-21T13:58:13.605Z,53.88
2019-03-21T14:00:44.093Z,54.37
2019-03-21T14:03:24.547Z,54.51
2019-03-21T14:05:46.796Z,54.98
2019-03-21T14:08:17.286Z,54.49
2019-03-21T14:10:47.842Z,55.26
2019-03-21T14:13:18.405Z,53.91
2019-03-21T14:15:48.990Z,52.99
2019-03-21T14:18:19.524Z,52.99
2019-03-21T14:20:50.051Z,53.57
2019-03-21T14:23:20.544Z,54.57
2019-03-21T14:25:51.114Z,54.33
2019-03-21T14:28:24.524Z,54.26
2019-03-21T14:30:55.420Z,53.97
2019-03-21T14:33:26.910Z,53.87
2019-03-21T14:35:57.484Z,54.21
2019-03-21T14:38:27.990Z,55.00
2019-03-21T14:40:58.559Z,55.34
2019-03-21T14:43:29.093Z,55.40
2019-03-21T14:45:59.662Z,55.29
2019-03-21T14:48:30.189Z,54.97
2019-03-21T14:51:00.650Z,55.06
2019-03-21T14:53:31.145Z,55.51
2019-03-21T14:56:01.653Z,56.34
2019-03-21T14:58:33.231Z,56.88
2019-03-21T15:01:03.880Z,57.29
2019-03-21T15:03:34.521Z,57.35
2019-03-21T15:06:06.199Z,57.62
2019-03-21T15:08:36.798Z,57.97
2019-03-21T15:11:16.458Z,57.63
2019-03-21T15:13:39.701Z,58.17
2019-03-21T15:16:10.236Z,58.25
2019-03-21T15:18:40.766Z,59.38
2019-03-21T15:21:12.424Z,59.28
2019-03-21T15:23:42.913Z,59.85
2019-03-21T15:26:14.513Z,59.96
2019-03-21T15:28:46.269Z,60.14
2019-03-21T15:31:16.799Z,60.39
2019-03-21T15:33:47.429Z,61.54
2019-03-21T15:36:18.014Z,61.33
2019-03-21T15:38:48.573Z,61.24
2019-03-21T15:41:19.123Z,61.30
2019-03-21T15:43:50.470Z,61.32
2019-03-21T15:46:21.003Z,61.03
2019-03-21T15:48:51.582Z,60.91
2019-03-21T15:51:22.066Z,60.83
2019-03-21T15:53:56.473Z,61.04
2019-03-21T15:56:24.808Z,61.22
2019-03-21T15:58:55.404Z,61.10
2019-03-21T16:01:26.952Z,61.31
2019-03-21T16:03:57.485Z,61.50
2019-03-21T16:06:28.083Z,61.47
2019-03-21T16:08:58.584Z,61.21
2019-03-21T16:11:31.828Z,61.00
2019-03-21T16:14:02.487Z,61.36
2019-03-21T16:16:33.013Z,61.37
2019-03-21T16:19:03.527Z,62.11
2019-03-21T16:21:34.122Z,62.24
2019-03-21T16:24:05.780Z,62.60
2019-03-21T16:26:37.023Z,62.58
2019-03-21T16:29:10.856Z,63.06
2019-03-21T16:31:41.475Z,63.19
2019-03-21T16:34:12.121Z,63.52
2019-03-21T16:36:42.629Z,63.09
2019-03-21T16:39:13.207Z,63.45
2019-03-21T16:41:43.705Z,63.74
2019-03-21T16:44:14.259Z,64.17
2019-03-21T16:46:44.736Z,64.54
2019-03-21T16:49:15.220Z,64.43
2019-03-21T16:51:45.753Z,64.67
2019-03-21T16:54:17.600Z,64.46
2019-03-21T16:56:48.378Z,64.56
2019-03-21T16:59:18.874Z,64.57
2019-03-21T17:01:49.525Z,64.79
2019-03-21T17:04:20.097Z,65.07
2019-03-21T17:06:50.796Z,64.87
2019-03-21T17:09:21.363Z,64.64
2019-03-21T17:11:51.953Z,64.61
2019-03-21T17:14:22.450Z,64.05
2019-03-21T17:16:53.023Z,64.67
2019-03-21T17:19:23.566Z,64.58
2019-03-21T17:21:54.082Z,65.02
2019-03-21T17:24:29.545Z,64.87
2019-03-21T17:26:56.868Z,64.97
2019-03-21T17:29:27.561Z,65.38
2019-03-21T17:31:58.156Z,65.61
2019-03-21T17:34:28.723Z,66.10
2019-03-21T17:36:59.320Z,66.53
2019-03-21T17:39:29.950Z,66.67
2019-03-21T17:42:00.528Z,67.02
2019-03-21T17:44:31.220Z,66.89
2019-03-21T17:47:01.845Z,67.10
2019-03-21T17:49:32.404Z,67.53
2019-03-21T17:52:03.018Z,67.89
2019-03-21T17:54:41.520Z,68.32
2019-03-21T17:57:05.823Z,68.21
2019-03-21T17:59:36.316Z,68.83
2019-03-21T18:02:06.886Z,68.58
2019-03-21T18:04:37.517Z,68.16
2019-03-21T18:07:08.049Z,68.34
2019-03-21T18:09:38.534Z,68.88
2019-03-21T18:12:09.208Z,69.06
2019-03-21T18:14:39.709Z,68.59
2019-03-21T18:17:10.268Z,68.57
2019-03-21T18:19:40.752Z,69.01
2019-03-21T18:22:11.240Z,69.61
2019-03-21T18:24:53.273Z,69.95
2019-03-21T18:27:15.276Z,69.18
